Aeroporto :
LOGIN :

Iscrizione | Disclaimer

   EN    FR    IT 

 










Sommario :    VFR   VFR Marginale   IFR   IFR Intensivo   IFR Molto Intensivo
Visibilità : 
Base nubi : 
>= 8 km
>= 3000ft
5 / 8 km
1000 / 3000 ft
1500m / 5 km
500 / 1000 ft
800 / 1500m
200 / 500 ft
< 800m
< 200 ft
Simboli :   Temporali  Nebbia  Neve Forte  Precipitazioni Forti  Vento > 20 kt
SIGMETs :   Varie  Temporali  Ghiacco  Turbolenza  Onda orograficha  Ceneri Vulcaniche






- Altitudine del aeroporto : 309 ft
- Codice IATA : FNI


LFTW - Nîmes Garons

ULTIMO METAR :
  • 040500Z AUTO 16013KT CAVOK 12/06 Q0989 TEMPO RA BKN014 BKN030 BECMG 34008KT

METARs OBSOLETI :
  • 040430Z AUTO 18013KT CAVOK 11/06 Q0990 TEMPO RA BKN014 BKN030 BECMG 34008KT
  • 040400Z AUTO 16016KT 9999 -RA ///TCU 12/06 Q0989 TEMPO RA BKN014 BKN030 BECMG 34008KT
  • 040330Z AUTO 16017KT 9999 FEW033/// BKN074/// OVC088/// ///TCU 12/06 Q0990 TEMPO RA BKN014 BKN030 BECMG 34008KT
  • 040300Z AUTO 18012KT 150V210 9999 FEW026/// SCT038/// BKN049/// ///TCU 11/07 Q0991 TEMPO RA BKN014 BKN030
  • 040230Z AUTO 15016KT 9999 SCT027 BKN036 BKN044 11/08 Q0991

TAF TAF LFTW
Valido dal 04 a 03 ore il 05 a 03 ore UTC


040200Z 0403/0503 16010KT 9999 BKN030
TEMPO 0403/0407 RA BKN014 BKN030
BECMG 0405/0407 34008KT
BECMG 0408/0411 23008KT
BECMG 0420/0422 VRB04KT CAVOK



MetMap, La meteo Aeronautica in un colpo d'occhio ! - Copyright ORBIFLY Dicembre 2007 - Disclaimer

ORBIFLY MET'MAP TEAM :

Programmazione e sviluppo : Alexandra Zaïnal
Concezione : Baudouin d'Aumeries
Aiuto per la programmazione : Marc-Olivier Méhu
Supporto tecnico e logistico : Manuel Goepfert
Aiuto per la traduzione : Arnaldo La Scala

Contatto : metmap@orbifly.com




FONTI E CREDITI :

   NOAA